Time;durP1;ratioP1;P1;durP2;ratioP2;P2;SDS_P1;SDS_P2;PMS_P1;PMS_P2;Temp;Humidity;BMP_temperature;BMP_pressure;BME280_temperature;BME280_humidity;BME280_pressure;Samples;Min_cycle;Max_cycle;Signal;HPM_P1;HPM_P2
2021/12/18 00:00:49;;;;;;;16.50;11.47;;;7.70;83.70;;;8.25;55.98;100723.88;4832636;29;123661;-88
2021/12/18 00:03:17;;;;;;;17.23;11.80;;;7.70;83.60;;;8.24;55.84;100722.19;4822460;29;113679;-86
2021/12/18 00:05:44;;;;;;;16.90;11.67;;;7.80;83.70;;;8.22;56.03;100729.03;4831249;29;113345;-87
2021/12/18 00:08:11;;;;;;;14.97;11.03;;;7.70;83.60;;;8.21;55.91;100722.69;4829917;29;123403;-88
2021/12/18 00:10:37;;;;;;;17.20;10.93;;;7.80;83.70;;;8.21;56.37;100725.44;4831682;29;122901;-88
2021/12/18 00:13:04;;;;;;;16.20;11.43;;;7.70;83.70;;;8.21;56.38;100722.69;4831794;29;113713;-88
2021/12/18 00:15:31;;;;;;;15.00;10.90;;;7.70;83.70;;;8.18;55.86;100724.03;4828511;29;114072;-88
2021/12/18 00:17:58;;;;;;;14.13;10.47;;;7.60;83.60;;;8.16;56.22;100725.34;4821055;29;123584;-87
2021/12/18 00:20:26;;;;;;;14.87;10.90;;;7.60;83.70;;;8.14;55.92;100722.00;4827561;29;124064;-86
2021/12/18 00:22:53;;;;;;;15.70;11.10;;;7.60;83.70;;;8.15;56.32;100737.47;4832733;29;113494;-87
2021/12/18 00:25:19;;;;;;;14.20;10.40;;;8.10;84.20;;;8.15;56.19;100734.72;4802605;29;112275;-86
2021/12/18 00:27:46;;;;;;;14.43;10.83;;;7.60;83.80;;;8.14;56.27;100722.88;4804381;29;122774;-87
2021/12/18 00:30:12;;;;;;;19.40;11.17;;;7.60;83.80;;;8.16;56.31;100725.34;4820523;29;123610;-89
2021/12/18 00:32:39;;;;;;;13.00;10.00;;;7.60;83.90;;;8.17;56.09;100733.38;4864813;28;114489;-87
2021/12/18 00:35:06;;;;;;;12.40;9.83;;;8.00;84.30;;;8.15;56.47;100734.72;4857601;28;113820;-86
2021/12/18 00:37:34;;;;;;;18.00;12.20;;;7.60;83.90;;;8.13;56.19;100731.38;4860210;28;123818;-88
2021/12/18 00:40:05;;;;;;;16.20;10.80;;;7.60;83.90;;;8.11;56.42;100728.88;4860090;28;122770;-87
2021/12/18 00:42:43;;;;;;;19.50;13.00;;;7.60;83.90;;;8.11;56.79;100728.03;4873298;28;112846;-88
2021/12/18 00:45:14;;;;;;;15.90;11.67;;;7.60;84.00;;;8.09;56.24;100732.97;4876025;28;113120;-87
2021/12/18 00:47:42;;;;;;;14.77;10.80;;;7.60;84.00;;;8.08;56.69;100737.59;4872761;28;123332;-87
2021/12/18 00:50:15;;;;;;;14.70;11.10;;;7.50;84.00;;;8.10;56.55;100742.88;4865189;28;123603;-87
2021/12/18 00:52:42;;;;;;;15.97;11.57;;;7.50;84.00;;;8.10;56.68;100731.88;4864925;28;113472;-86
2021/12/18 00:55:09;;;;;;;17.87;12.53;;;7.60;84.10;;;8.08;56.46;100740.38;4879932;28;113499;-88
2021/12/18 00:57:37;;;;;;;16.70;11.00;;;7.50;84.00;;;8.05;56.59;100738.09;4891340;28;124130;-87
2021/12/18 01:00:08;;;;;;;18.23;13.50;;;7.50;84.00;;;8.05;56.42;100740.88;4890777;28;123005;-87
2021/12/18 01:02:59;;;;;;;16.97;13.00;;;7.50;84.00;;;8.01;56.05;100750.72;4891398;28;112979;-87
2021/12/18 01:05:27;;;;;;;15.57;11.73;;;7.50;83.80;;;7.91;56.02;100745.84;4888774;28;114334;-87
2021/12/18 01:07:58;;;;;;;17.50;12.10;;;7.40;83.80;;;7.89;56.59;100739.75;4881418;28;123278;-87
2021/12/18 01:10:43;;;;;;;18.67;12.00;;;7.40;83.90;;;7.88;56.51;100731.75;4894897;28;123815;-87
2021/12/18 01:13:15;;;;;;;15.37;11.10;;;7.40;84.00;;;7.87;56.71;100733.69;4887335;28;114668;-87
2021/12/18 01:15:48;;;;;;;14.63;10.33;;;7.40;84.10;;;7.89;56.62;100736.16;4869407;28;113475;-86
2021/12/18 01:23:49;;;;;;;16.17;11.70;;;7.30;83.90;;;7.84;56.37;100731.41;4869093;28;114906;-87
2021/12/18 01:26:17;;;;;;;16.53;11.40;;;7.30;83.90;;;7.83;56.40;100731.66;4875042;28;113895;-86
2021/12/18 01:28:50;;;;;;;15.20;10.90;;;7.30;84.00;;;7.84;56.67;100731.41;4889929;28;123855;-88
2021/12/18 01:31:16;;;;;;;15.50;11.17;;;7.30;84.00;;;7.85;56.84;100735.84;4881860;28;123440;-87
2021/12/18 01:33:43;;;;;;;15.57;11.10;;;7.30;84.00;;;7.85;56.56;100737.75;4891717;28;113484;-87
2021/12/18 01:36:11;;;;;;;16.80;11.73;;;7.40;84.10;;;7.81;56.51;100739.31;4890108;28;114099;-87
2021/12/18 01:38:37;;;;;;;18.57;12.33;;;7.30;83.90;;;7.79;56.46;100745.09;4893810;28;123099;-86
2021/12/18 01:41:05;;;;;;;16.50;12.50;;;7.40;84.00;;;7.77;56.43;100746.41;4885019;28;123104;-86
2021/12/18 01:44:50;;;;;;;17.83;11.77;;;7.30;83.90;;;7.75;56.54;100744.72;4874951;28;114546;-87
2021/12/18 01:54:37;;;;;;;17.27;12.83;;;7.40;84.20;;;7.66;56.99;100743.47;4889946;28;113592;-86
2021/12/18 01:57:05;;;;;;;15.70;10.93;;;7.20;84.10;;;7.64;56.67;100747.53;4866484;28;113210;-87
2021/12/18 01:59:47;;;;;;;20.33;13.30;;;7.10;84.10;;;7.63;56.79;100762.34;4864474;28;122876;-87
2021/12/18 02:02:32;;;;;;;15.57;11.93;;;7.10;84.10;;;7.60;57.04;100752.66;4874880;28;122468;-87
2021/12/18 02:05:38;;;;;;;17.07;12.20;;;7.10;84.10;;;7.58;56.97;100746.59;4874733;28;114495;-85
2021/12/18 02:08:06;;;;;;;15.10;10.73;;;7.10;84.10;;;7.57;57.02;100755.91;4865070;28;112202;-87
2021/12/18 02:10:45;;;;;;;16.37;11.63;;;7.10;84.20;;;7.55;56.68;100746.22;4862815;28;123074;-87
2021/12/18 02:22:19;;;;;;;15.97;11.13;;;7.00;84.10;;;7.47;57.12;100739.22;4871625;28;124128;-87
2021/12/18 02:24:46;;;;;;;16.97;11.67;;;7.00;84.20;;;7.43;57.20;100738.84;4871235;28;124069;-87
2021/12/18 02:27:14;;;;;;;19.70;13.07;;;7.00;84.20;;;7.44;57.00;100745.19;4873586;28;114319;-86
2021/12/18 02:29:42;;;;;;;14.30;10.80;;;7.00;84.30;;;7.45;56.90;100735.88;4877881;28;113249;-88
2021/12/18 02:32:12;;;;;;;16.50;11.37;;;6.90;84.30;;;7.49;57.19;100745.28;4879341;28;123131;-86
2021/12/18 02:35:04;;;;;;;18.73;11.93;;;7.00;84.40;;;7.50;56.63;100730.50;4883871;28;123116;-86
2021/12/18 02:37:38;;;;;;;19.20;13.87;;;7.00;84.40;;;7.44;56.77;100751.56;4862568;28;113328;-87
2021/12/18 02:42:36;;;;;;;18.13;12.93;;;6.90;84.30;;;7.35;57.42;100738.41;4861814;28;124787;-87
2021/12/18 02:45:06;;;;;;;16.27;12.63;;;6.90;84.30;;;7.33;57.10;100744.16;4854054;28;121878;-87
2021/12/18 02:47:34;;;;;;;19.30;13.77;;;6.80;84.30;;;7.29;56.86;100742.97;4859848;28;113260;-87
2021/12/18 02:50:02;;;;;;;17.30;11.80;;;6.80;84.50;;;7.25;57.50;100753.63;4865359;28;113355;-86
2021/12/18 02:52:30;;;;;;;19.53;14.30;;;6.80;84.60;;;7.23;57.43;100743.97;4865606;28;123598;-87
2021/12/18 02:54:57;;;;;;;18.03;12.53;;;6.90;85.30;;;7.20;57.18;100744.41;4858621;28;122552;-85
2021/12/18 02:57:23;;;;;;;18.60;13.13;;;6.70;84.50;;;7.19;57.73;100742.75;4879733;28;113407;-86
2021/12/18 03:03:52;;;;;;;18.30;11.60;;;6.70;84.60;;;7.14;57.36;100735.22;4893725;28;123924;-86
2021/12/18 03:06:31;;;;;;;18.80;12.37;;;6.70;84.70;;;7.11;57.55;100732.13;4883888;28;122944;-87
2021/12/18 03:20:19;;;;;;;16.77;12.07;;;6.60;84.80;;;7.11;57.71;100740.38;4862430;28;124494;-87
2021/12/18 03:22:15;;;;;;;19.23;11.80;;;6.60;84.70;;;7.12;57.87;100750.28;4876510;28;113872;-86
2021/12/18 03:24:41;;;;;;;17.23;12.27;;;7.10;85.20;;;7.11;57.64;100740.38;4888434;28;112802;-87
2021/12/18 03:27:10;;;;;;;18.23;12.33;;;6.70;84.90;;;7.12;57.38;100744.78;4890915;28;123280;-87
2021/12/18 03:29:36;;;;;;;15.60;12.47;;;6.60;84.90;;;7.12;57.53;100742.03;4885894;28;122621;-87
2021/12/18 03:32:03;;;;;;;18.67;13.13;;;6.60;84.90;;;7.13;57.49;100738.22;4897503;28;114259;-87
2021/12/18 03:34:49;;;;;;;16.13;11.43;;;6.60;85.00;;;7.15;57.44;100747.09;4897660;28;113770;-87
2021/12/18 03:37:16;;;;;;;18.67;12.40;;;6.60;85.00;;;7.12;58.18;100742.03;4882930;28;124040;-87
2021/12/18 03:40:05;;;;;;;18.53;11.37;;;6.60;85.00;;;7.13;58.08;100744.56;4877237;28;123449;-86
2021/12/18 03:42:36;;;;;;;17.77;13.20;;;6.60;85.10;;;7.13;57.88;100749.22;4895767;28;113265;-86
2021/12/18 03:48:44;;;;;;;20.77;12.87;;;6.60;85.00;;;7.07;57.66;100751.03;4878854;28;124702;-86
2021/12/18 03:51:11;;;;;;;19.17;12.60;;;6.60;85.00;;;7.07;57.82;100745.53;4896846;28;123743;-86
2021/12/18 03:53:37;;;;;;;18.80;12.93;;;6.70;85.10;;;7.07;57.68;100751.88;4882274;28;113058;-86
2021/12/18 03:56:04;;;;;;;18.80;12.60;;;6.60;85.10;;;7.08;58.22;100736.19;4887964;28;114155;-86
2021/12/18 03:58:31;;;;;;;19.57;13.93;;;6.60;85.10;;;7.08;57.83;100739.78;4892581;28;123832;-86
2021/12/18 04:00:58;;;;;;;16.70;11.83;;;6.60;85.10;;;7.07;57.72;100735.38;4885204;28;122107;-86
2021/12/18 04:03:24;;;;;;;16.83;11.57;;;6.70;85.20;;;7.05;57.77;100729.28;4879642;28;114430;-87
2021/12/18 04:05:51;;;;;;;19.43;12.40;;;6.50;85.00;;;7.04;58.18;100722.13;4886044;28;115472;-87
2021/12/18 04:08:17;;;;;;;16.10;10.70;;;6.50;85.10;;;7.02;58.11;100718.75;4874735;28;123731;-86
2021/12/18 04:11:03;;;;;;;19.33;13.00;;;6.50;85.10;;;7.02;57.78;100735.25;4876651;28;123315;-86
2021/12/18 04:13:49;;;;;;;16.20;11.63;;;6.50;85.10;;;6.99;57.99;100732.16;4875332;28;114234;-85
2021/12/18 04:16:17;;;;;;;18.80;12.30;;;6.50;85.10;;;6.97;58.39;100724.16;4890886;28;112959;-86
2021/12/18 04:18:45;;;;;;;21.07;12.53;;;7.10;85.70;;;6.94;58.01;100724.63;4856863;28;124434;-85
2021/12/18 04:21:12;;;;;;;17.57;11.77;;;6.50;85.10;;;6.92;57.80;100726.78;4872002;28;122534;-86
2021/12/18 04:23:39;;;;;;;17.30;10.97;;;5.80;84.60;;;6.91;58.18;100730.63;4890736;28;114503;-88
2021/12/18 04:27:03;;;;;;;17.53;10.93;;;6.40;85.20;;;6.92;57.77;100729.53;4879813;28;112870;-85
2021/12/18 04:29:31;;;;;;;17.77;11.00;;;6.40;85.20;;;6.89;57.63;100727.25;4877858;28;123927;-86
2021/12/18 04:31:57;;;;;;;20.17;12.40;;;6.50;85.30;;;6.91;57.99;100724.28;4888098;28;123070;-85
2021/12/18 04:34:25;;;;;;;21.07;12.07;;;6.40;85.30;;;6.89;57.53;100735.50;4897525;28;113753;-87
2021/12/18 04:36:51;;;;;;;24.00;12.60;;;6.40;85.20;;;6.86;58.45;100734.06;4895057;28;114345;-84
2021/12/18 04:39:18;;;;;;;16.27;11.20;;;6.40;85.30;;;6.88;58.21;100731.09;4893483;28;124631;-84
2021/12/18 04:41:50;;;;;;;19.03;12.10;;;6.30;85.30;;;6.88;58.07;100727.50;4896597;28;121854;-86
2021/12/18 04:44:18;;;;;;;17.20;11.77;;;6.30;85.30;;;6.86;58.12;100723.09;4884514;28;114478;-86
2021/12/18 04:47:05;;;;;;;17.40;11.20;;;6.40;85.30;;;6.85;58.06;100713.19;4889661;28;113151;-85
2021/12/18 04:49:33;;;;;;;16.50;10.40;;;6.40;85.30;;;6.79;58.15;100718.78;4887459;28;123392;-86
2021/12/18 04:52:02;;;;;;;17.40;11.83;;;6.30;85.10;;;6.78;58.38;100715.22;4897891;28;123638;-86
2021/12/18 04:54:46;;;;;;;17.23;11.73;;;6.30;85.20;;;6.78;58.11;100720.72;4891198;28;114428;-86
2021/12/18 05:00:55;;;;;;;15.97;10.97;;;6.30;85.20;;;6.71;57.84;100725.47;4877138;28;123817;-86
2021/12/18 05:03:22;;;;;;;16.80;11.13;;;6.20;85.20;;;6.72;58.01;100737.31;4868112;28;96681;-86
2021/12/18 05:05:51;;;;;;;18.30;11.50;;;6.20;85.20;;;6.71;57.69;100727.41;4860355;28;113684;-87
2021/12/18 05:08:37;;;;;;;17.23;11.90;;;6.20;85.30;;;6.70;57.61;100728.47;4864745;28;113219;-87
2021/12/18 05:11:03;;;;;;;16.87;11.00;;;6.20;85.30;;;6.66;58.53;100722.59;4879103;28;123801;-85
2021/12/18 05:13:30;;;;;;;20.60;12.40;;;6.20;85.40;;;6.66;57.78;100711.63;4875296;28;123482;-85
2021/12/18 05:15:57;;;;;;;20.27;12.63;;;6.20;85.40;;;6.64;57.88;100713.81;4886459;28;113980;-80
2021/12/18 05:18:23;;;;;;;20.57;11.80;;;6.20;85.40;;;6.63;58.20;100707.44;4874593;28;113547;-82
2021/12/18 05:20:50;;;;;;;21.37;12.17;;;6.20;85.40;;;6.63;58.35;100715.69;4878554;28;124717;-85
2021/12/18 05:23:17;;;;;;;18.27;11.00;;;6.20;85.50;;;6.62;57.89;100722.25;4896753;28;123233;-83
2021/12/18 05:25:44;;;;;;;17.40;11.00;;;6.10;85.40;;;6.60;58.65;100720.81;4877352;28;114426;-85
2021/12/18 05:28:13;;;;;;;16.57;10.43;;;6.10;85.40;;;6.60;58.30;100724.41;4883936;28;113392;-84
2021/12/18 05:30:41;;;;;;;16.47;10.87;;;6.10;85.50;;;6.61;58.40;100730.75;4881886;28;122294;-81
2021/12/18 05:33:07;;;;;;;19.67;11.10;;;6.10;85.60;;;6.57;58.40;100741.38;4875708;28;123568;-80
2021/12/18 05:35:36;;;;;;;18.00;11.80;;;6.10;85.50;;;6.57;58.68;100730.38;4878488;28;114176;-86
2021/12/18 05:38:05;;;;;;;14.90;10.53;;;6.10;85.60;;;6.55;58.01;100742.69;4869460;28;113816;-86
2021/12/18 05:40:35;;;;;;;17.37;10.30;;;6.10;85.60;;;6.56;58.26;100742.44;4869519;28;123443;-86
2021/12/18 05:43:02;;;;;;;17.47;10.40;;;6.00;85.60;;;6.55;58.70;100732.53;4869500;28;123177;-87
2021/12/18 05:45:29;;;;;;;13.80;9.90;;;6.20;85.70;;;6.55;58.52;100737.19;4878273;28;115177;-85
2021/12/18 05:47:56;;;;;;;14.97;9.70;;;6.00;85.50;;;6.52;58.37;100741.25;4853435;29;113943;-86
2021/12/18 05:50:27;;;;;;;15.80;10.57;;;6.00;85.50;;;6.50;57.95;100735.19;4873463;28;124739;-87
2021/12/18 05:53:14;;;;;;;14.77;10.43;;;6.00;85.50;;;6.48;58.21;100745.56;4847238;28;124000;-86
2021/12/18 05:55:40;;;;;;;16.00;10.33;;;6.00;85.50;;;6.43;58.26;100750.09;4884316;28;114344;-87
2021/12/18 05:58:45;;;;;;;16.20;10.00;;;5.90;85.50;;;6.45;58.25;100743.28;4884471;28;113924;-87
2021/12/18 06:01:32;;;;;;;13.27;8.90;;;5.90;85.60;;;6.43;58.25;100745.41;4898279;28;123059;-86
2021/12/18 06:04:17;;;;;;;14.77;9.90;;;5.90;85.60;;;6.42;58.13;100743.72;4879685;28;122769;-87
2021/12/18 06:07:29;;;;;;;15.60;9.53;;;5.90;85.60;;;6.35;58.06;100745.78;4881200;28;115242;-87
2021/12/18 06:10:37;;;;;;;17.17;11.13;;;5.90;85.60;;;6.29;58.07;100750.31;4895738;28;114038;-87
2021/12/18 06:13:05;;;;;;;16.33;10.40;;;5.80;85.60;;;6.22;59.01;100751.47;4864854;28;124438;-87
2021/12/18 06:15:50;;;;;;;18.20;10.80;;;5.80;85.60;;;6.22;58.90;100748.72;4895060;28;122853;-87
2021/12/18 06:18:20;;;;;;;15.93;9.50;;;5.80;85.70;;;6.20;59.16;100751.69;4889076;28;114035;-86
2021/12/18 06:20:47;;;;;;;14.17;9.70;;;5.80;85.80;;;6.23;58.90;100744.91;4894056;28;113424;-87
2021/12/18 06:23:14;;;;;;;16.23;10.90;;;5.80;85.80;;;6.24;58.63;100746.59;4893685;28;124332;-87
2021/12/18 06:25:40;;;;;;;16.50;10.60;;;5.80;85.90;;;6.21;58.98;100742.41;4891311;28;122921;-88
2021/12/18 06:28:08;;;;;;;17.57;12.00;;;5.70;85.70;;;6.17;59.10;100753.00;4899726;28;113078;-87
2021/12/18 06:30:55;;;;;;;15.13;9.73;;;5.70;85.80;;;6.13;59.03;100762.78;4880924;28;114537;-86
2021/12/18 06:34:18;;;;;;;15.67;10.13;;;5.70;85.90;;;6.11;59.16;100758.63;4896047;28;123939;-87
2021/12/18 06:36:45;;;;;;;14.87;9.87;;;5.60;85.90;;;6.07;58.63;100758.25;4893957;28;123868;-88
2021/12/18 06:39:11;;;;;;;16.53;10.37;;;5.80;86.20;;;6.10;59.32;100756.91;4879869;28;114331;-85
2021/12/18 06:41:38;;;;;;;15.23;10.13;;;5.60;86.10;;;6.10;59.59;100768.75;4872157;28;114672;-87
2021/12/18 06:44:06;;;;;;;18.17;11.67;;;5.60;86.10;;;6.07;58.81;100761.00;4869961;28;122238;-87
2021/12/18 06:46:32;;;;;;;12.60;9.20;;;5.60;86.10;;;6.06;59.37;100753.81;4893422;28;122099;-87
2021/12/18 06:49:01;;;;;;;13.37;8.73;;;5.60;86.20;;;6.08;59.19;100751.69;4892722;28;113154;-86
2021/12/18 06:51:48;;;;;;;14.33;8.23;;;5.60;86.30;;;6.11;58.97;100742.97;4881184;28;113981;-87
2021/12/18 06:54:15;;;;;;;12.70;8.60;;;5.60;86.40;;;6.10;58.90;100752.28;4860518;28;123239;-87
2021/12/18 06:56:44;;;;;;;15.67;10.07;;;5.60;86.30;;;6.08;58.53;100753.59;4861258;28;123607;-88
2021/12/18 06:59:10;;;;;;;14.40;8.90;;;5.60;86.10;;;6.01;59.08;100750.94;4839857;28;114229;-87
2021/12/18 07:01:39;;;;;;;12.70;9.00;;;5.50;86.10;;;6.00;58.84;100753.94;4864959;28;114104;-87
2021/12/18 07:04:05;;;;;;;14.53;8.63;;;5.70;86.30;;;5.98;58.77;100748.66;4845201;28;123289;-87
2021/12/18 07:06:33;;;;;;;13.00;8.30;;;5.50;86.10;;;5.99;58.90;100753.06;4854817;28;124134;-86
2021/12/18 07:08:59;;;;;;;13.33;8.43;;;5.60;86.30;;;5.98;59.26;100754.16;4869091;28;114366;-87
2021/12/18 07:11:26;;;;;;;13.57;8.20;;;5.50;86.20;;;5.98;58.84;100763.22;4840350;28;113888;-86
2021/12/18 07:13:53;;;;;;;9.93;7.27;;;5.50;86.30;;;6.03;58.61;100761.69;4848200;29;124114;-87
2021/12/18 07:16:20;;;;;;;12.10;7.87;;;5.50;86.40;;;6.08;58.98;100764.56;4868425;28;123163;-87
2021/12/18 07:18:51;;;;;;;11.47;7.57;;;5.50;86.40;;;6.11;58.73;100764.94;4859255;28;113747;-87
2021/12/18 07:21:18;;;;;;;12.93;7.93;;;5.50;86.40;;;6.14;58.80;100758.13;4869454;28;114049;-86
2021/12/18 07:23:47;;;;;;;12.10;7.23;;;5.60;86.40;;;6.16;58.81;100756.84;4871968;28;124033;-87
2021/12/18 07:26:14;;;;;;;11.17;7.13;;;5.60;86.40;;;6.18;59.09;100771.16;4871859;28;122977;-85
2021/12/18 07:28:41;;;;;;;13.13;8.10;;;5.70;86.40;;;6.22;59.63;100776.19;4855600;28;114601;-87
2021/12/18 07:31:07;;;;;;;14.30;8.60;;;5.70;86.40;;;6.23;59.13;100780.59;4869140;28;114070;-87
2021/12/18 07:33:37;;;;;;;15.80;8.80;;;5.70;86.50;;;6.20;59.14;100782.72;4851263;29;124044;-87
2021/12/18 07:36:07;;;;;;;16.93;9.27;;;5.70;86.40;;;6.22;59.41;100792.66;4853059;28;123847;-86
2021/12/18 07:38:35;;;;;;;15.40;9.33;;;5.70;86.40;;;6.19;59.22;100792.03;4859212;28;112471;-86
2021/12/18 07:41:01;;;;;;;11.57;7.47;;;5.70;86.30;;;6.17;59.19;100794.16;4870491;28;113904;-88
2021/12/18 07:43:30;;;;;;;12.37;7.67;;;5.60;86.30;;;6.21;58.89;100789.06;4857528;28;122917;-86
2021/12/18 07:45:56;;;;;;;12.37;8.00;;;5.70;86.40;;;6.22;58.42;100788.00;4839636;28;122013;-87
2021/12/18 07:48:24;;;;;;;16.97;9.47;;;5.70;86.40;;;6.23;58.76;100788.81;4869380;28;113520;-87
2021/12/18 07:50:54;;;;;;;15.70;9.70;;;5.70;86.50;;;6.27;58.98;100790.03;4855416;29;112093;-87
2021/12/18 07:53:23;;;;;;;14.33;8.50;;;5.70;87.20;;;6.27;59.17;100790.03;4848635;29;123177;-87
2021/12/18 07:55:51;;;;;;;13.50;8.40;;;5.70;86.60;;;6.24;59.70;100788.59;4835721;28;122752;-85
2021/12/18 07:58:19;;;;;;;18.00;7.77;;;5.70;86.60;;;6.25;59.48;100793.00;4872167;28;114201;-87
2021/12/18 08:00:47;;;;;;;12.67;7.53;;;5.70;86.70;;;6.27;59.06;100792.78;4868815;28;113328;-86
2021/12/18 08:03:14;;;;;;;12.93;7.47;;;5.70;86.70;;;6.28;59.52;100788.97;4855152;28;121730;-87
2021/12/18 08:05:41;;;;;;;11.03;7.13;;;5.70;86.80;;;6.29;58.77;100783.25;4864755;28;123755;-87
2021/12/18 08:08:08;;;;;;;13.53;8.20;;;5.70;86.80;;;6.33;59.20;100787.19;4868026;28;113342;-87
2021/12/18 08:10:35;;;;;;;11.27;7.20;;;5.80;86.90;;;6.36;58.99;100783.13;4863625;28;113987;-86
2021/12/18 08:13:02;;;;;;;13.37;8.00;;;5.80;86.90;;;6.38;59.12;100791.97;4866386;28;123944;-87
2021/12/18 08:15:28;;;;;;;12.50;7.87;;;5.80;87.00;;;6.43;59.41;100788.53;4868040;28;124323;-87
2021/12/18 08:17:57;;;;;;;15.07;8.63;;;5.80;87.00;;;6.44;59.47;100785.53;4867029;28;115197;-87
2021/12/18 08:20:26;;;;;;;12.03;7.17;;;6.00;87.10;;;6.47;58.85;100789.72;4870121;28;115553;-87
2021/12/18 08:22:52;;;;;;;11.83;7.60;;;5.90;87.10;;;6.47;59.47;100790.53;4870275;28;124037;-86
2021/12/18 08:25:19;;;;;;;12.33;7.10;;;5.90;87.00;;;6.49;59.12;100777.41;4862086;28;123609;-87
2021/12/18 08:27:47;;;;;;;12.60;8.03;;;5.90;87.00;;;6.53;59.46;100784.13;4854326;28;114019;-88
2021/12/18 08:30:14;;;;;;;10.50;7.07;;;6.00;87.10;;;6.55;59.10;100776.47;4868272;28;113069;-87
2021/12/18 08:32:43;;;;;;;11.20;7.47;;;6.00;87.10;;;6.57;59.51;100782.56;4856650;28;125512;-88
2021/12/18 08:35:48;;;;;;;11.60;7.17;;;6.00;87.10;;;6.62;59.39;100779.09;4856191;28;121908;-88
2021/12/18 08:38:14;;;;;;;15.40;8.90;;;6.00;87.10;;;6.62;59.17;100785.44;4872494;28;114017;-88
2021/12/18 08:40:42;;;;;;;13.70;8.50;;;6.00;87.00;;;6.62;59.30;100785.44;4870525;28;114434;-88
2021/12/18 08:43:11;;;;;;;13.40;8.23;;;6.00;87.00;;;6.59;58.97;100783.16;4857662;28;123296;-87
2021/12/18 08:45:37;;;;;;;13.97;8.80;;;6.00;87.00;;;6.57;58.85;100778.97;4854525;28;122867;-88
2021/12/18 08:48:41;;;;;;;13.67;7.77;;;6.00;87.00;;;6.60;59.36;100784.81;4862938;28;113536;-88
2021/12/18 08:51:10;;;;;;;15.60;9.30;;;6.00;87.10;;;6.59;59.37;100783.16;4867516;28;113702;-87
2021/12/18 08:53:39;;;;;;;12.80;7.80;;;6.00;87.10;;;6.59;58.91;100783.16;4872946;28;123159;-88
2021/12/18 08:56:24;;;;;;;15.33;8.60;;;6.00;87.10;;;6.64;59.19;100777.81;4887146;28;122851;-89
2021/12/18 08:58:51;;;;;;;12.70;8.10;;;6.10;87.30;;;6.67;59.15;100783.91;4887175;28;114217;-88
2021/12/18 09:01:20;;;;;;;13.03;7.90;;;6.10;87.30;;;6.67;59.68;100775.66;4894200;28;113895;-88
2021/12/18 09:03:46;;;;;;;16.77;9.63;;;6.20;87.30;;;6.66;59.08;100774.78;4866702;28;123906;-88
2021/12/18 09:06:31;;;;;;;17.70;8.80;;;6.10;87.30;;;6.67;59.49;100776.50;4905237;28;122122;-88
2021/12/18 09:08:59;;;;;;;14.60;8.00;;;6.10;87.20;;;6.62;59.17;100779.09;4878656;28;114348;-89
2021/12/18 09:11:44;;;;;;;11.70;7.73;;;6.00;87.10;;;6.66;59.23;100776.72;4884944;28;114850;-89
2021/12/18 09:14:14;;;;;;;14.33;7.30;;;6.10;87.20;;;6.65;59.56;100773.13;4885872;28;124516;-87
2021/12/18 09:17:38;;;;;;;14.03;8.20;;;6.10;87.20;;;6.70;59.45;100772.44;4889722;28;124603;-89
2021/12/18 09:20:08;;;;;;;14.60;8.47;;;6.10;87.20;;;6.67;58.96;100776.50;4908984;28;114179;-88
2021/12/18 09:22:34;;;;;;;14.87;9.60;;;6.10;87.10;;;6.68;59.08;100775.41;4903914;28;112849;-87
2021/12/18 09:25:22;;;;;;;16.40;9.27;;;6.10;87.10;;;6.72;59.46;100768.38;4898800;28;123988;-89
2021/12/18 09:27:51;;;;;;;15.83;9.37;;;7.60;88.50;;;6.69;59.78;100768.84;4898170;28;122895;-88
2021/12/18 09:30:38;;;;;;;24.00;10.27;;;6.10;87.20;;;6.68;59.07;100763.59;4900233;28;113874;-88
2021/12/18 09:33:24;;;;;;;14.30;7.93;;;6.10;87.10;;;6.66;59.22;100765.72;4898998;28;113692;-88
2021/12/18 09:35:51;;;;;;;14.50;8.70;;;6.10;87.10;;;6.63;59.51;100767.88;4897614;28;123358;-88
2021/12/18 09:38:19;;;;;;;15.97;8.53;;;6.10;87.10;;;6.64;59.15;100764.06;4889043;28;123837;-86
2021/12/18 09:40:47;;;;;;;16.57;9.53;;;6.10;87.10;;;6.67;58.97;100764.69;4884639;28;112701;-88
2021/12/18 09:43:35;;;;;;;13.90;8.27;;;6.20;87.20;;;6.71;59.21;100757.59;4896843;28;114333;-88
2021/12/18 09:46:21;;;;;;;17.17;9.43;;;6.20;87.20;;;6.72;58.96;100759.31;4878965;28;124227;-87
2021/12/18 09:49:07;;;;;;;19.63;10.37;;;6.20;87.20;;;6.71;59.54;100744.72;4897472;28;123106;-87
2021/12/18 09:51:37;;;;;;;15.97;9.07;;;6.20;87.10;;;6.70;59.16;100750.47;4889237;28;114312;-87
2021/12/18 09:54:03;;;;;;;13.97;8.70;;;6.20;87.80;;;6.72;59.38;100759.31;4893115;28;112204;-87
2021/12/18 09:56:30;;;;;;;13.70;8.10;;;6.40;87.30;;;6.76;59.15;100750.31;4880306;28;124176;-88
2021/12/18 09:58:57;;;;;;;14.50;8.63;;;6.90;87.80;;;6.81;59.49;100742.19;4875289;28;124210;-87
2021/12/18 10:01:23;;;;;;;14.23;9.00;;;6.20;87.20;;;6.85;59.26;100739.81;4861501;28;114638;-88
2021/12/18 10:03:57;;;;;;;16.57;8.53;;;6.30;87.20;;;6.87;59.12;100734.91;4897356;28;113937;-89
2021/12/18 10:06:44;;;;;;;17.53;9.77;;;6.50;87.30;;;6.89;59.04;100727.25;4864115;28;124142;-88
2021/12/18 10:09:34;;;;;;;15.13;8.90;;;6.30;87.00;;;6.90;59.11;100728.94;4875754;28;122770;-89
2021/12/18 10:12:12;;;;;;;15.30;9.17;;;6.30;87.00;;;6.93;59.07;100739.47;4888230;28;114199;-89
2021/12/18 10:14:46;;;;;;;13.80;8.67;;;6.30;86.80;;;6.93;58.71;100725.72;4897094;28;114839;-86
2021/12/18 10:17:28;;;;;;;16.20;9.80;;;6.40;86.80;;;6.96;58.72;100722.50;4893975;28;124027;-87
2021/12/18 10:20:22;;;;;;;22.53;12.20;;;6.40;86.90;;;6.98;58.99;100719.47;4879918;28;123564;-89
2021/12/18 10:22:53;;;;;;;13.43;9.00;;;6.40;86.70;;;6.95;58.66;100719.97;4892659;28;114301;-88
2021/12/18 10:25:25;;;;;;;15.50;9.07;;;6.40;86.70;;;6.95;58.25;100719.97;4894189;28;113804;-87
2021/12/18 10:31:44;;;;;;;15.17;8.63;;;6.40;86.50;;;6.96;58.57;100721.63;4900591;28;123487;-88
2021/12/18 10:34:18;;;;;;;15.07;8.70;;;6.40;86.40;;;6.99;58.81;100716.50;4882398;28;112382;-89
2021/12/18 10:37:06;;;;;;;14.70;8.77;;;6.40;86.40;;;7.04;58.45;100724.03;4874032;28;112164;-88
2021/12/18 10:39:53;;;;;;;14.93;8.27;;;6.50;86.30;;;7.04;57.80;100716.63;4893142;28;123055;-89
2021/12/18 10:42:25;;;;;;;13.73;8.53;;;6.50;86.20;;;7.01;58.16;100708.88;4862815;28;123942;-89
2021/12/18 10:44:59;;;;;;;16.97;10.30;;;6.50;86.00;;;7.02;57.81;100713.28;4894723;28;114193;-89
2021/12/18 10:47:49;;;;;;;13.47;8.70;;;6.50;86.00;;;7.04;58.15;100697.38;4888889;28;113292;-89
2021/12/18 10:51:03;;;;;;;10.90;7.17;;;6.50;85.90;;;7.06;57.53;100706.19;4889444;28;123781;-87
2021/12/18 10:53:30;;;;;;;14.90;8.63;;;6.50;85.90;;;7.06;57.98;100703.44;4814852;29;124124;-88
2021/12/18 10:56:03;;;;;;;11.60;8.37;;;6.50;85.80;;;7.08;57.83;100705.97;4816436;29;115644;-86
2021/12/18 10:58:49;;;;;;;17.03;10.00;;;6.50;85.70;;;7.10;57.51;100705.75;4822199;29;115185;-87
2021/12/18 11:01:16;;;;;;;14.20;8.57;;;6.60;85.70;;;7.07;57.65;100704.31;4802625;29;123311;-88
2021/12/18 11:03:49;;;;;;;17.30;10.10;;;6.60;85.60;;;7.08;57.52;100698.56;4817568;29;124112;-88
2021/12/18 11:06:35;;;;;;;16.07;9.50;;;6.50;85.50;;;7.05;57.76;100688.03;4791150;29;113735;-87
2021/12/18 11:09:14;;;;;;;12.57;7.60;;;6.50;85.50;;;7.07;57.60;100685.06;4791811;29;113348;-87
2021/12/18 11:14:22;;;;;;;13.90;8.87;;;6.50;85.60;;;7.07;57.97;100680.41;4766444;29;123271;-87
2021/12/18 11:17:03;;;;;;;13.33;8.63;;;6.50;85.40;;;7.05;57.67;100676.22;4768429;29;113277;-87
2021/12/18 11:19:33;;;;;;;16.00;9.93;;;6.50;85.40;;;7.01;57.92;100670.38;4762631;29;113395;-88
2021/12/18 11:22:16;;;;;;;12.30;8.03;;;6.50;85.40;;;7.02;57.46;100672.03;4761386;29;124126;-87
2021/12/18 11:24:52;;;;;;;13.10;8.50;;;6.50;85.50;;;7.04;57.21;100675.41;4761361;29;123853;-87